Port Washington, New York
Current Conditions -  °F | °C
As of 10:51 PM on Monday 22 Dec 2014 (Local Time) from KLGA Reporting Station
Light Rain Light Rain  
Wind Chill: 37°   Ceiling: 600
Heat Index: 43°   Visibility: 2mi
Dew Point: 41°   Wind: 10mph
Humidity: 93%   Direction: 60°ENE
Pressure: 30.2"   Gusts: NA
Location:  40.83°N, 73.7°W
Report Text: KLGA 230351Z 06009KT 2SM -RA BR OVC006 06/05 A3020 RMK AO2 SLP224 P0002 T00610050
Loading
Personal Weather Stations






























Interactive Weather Map New forecast layout! Learn more

10-Day Weather Forecast

Advertisements
Track Severe Weather on mobile